Terminal Aerodrome Forecast
Issued by NWS Sterling, VA

Home | Current Version | Previous Version | Text Only | Print | Product List | Glossary On
Versions: 1 2 3 4 5 6 7 8 9 10 11 12 13 14 15 16 17 18 19 20 21 22 23 24
000
FTUS41 KLWX 030537
TAFBWI
TAF
KBWI 030537Z 0306/0412 05005KT 5SM -SHRA BR OVC008
     FM031200 01007KT 3SM -SHRA BR OVC008
     FM031800 02005KT P6SM OVC008
     FM040000 08004KT P6SM OVC008
     FM040500 08004KT 3SM BR BKN003=

USA.gov is the U.S. government's official web portal to all federal, state and local government web resources and services.